Time;durP1;ratioP1;P1;durP2;ratioP2;P2;SDS_P1;SDS_P2;PMS_P1;PMS_P2;Temp;Humidity;BMP_temperature;BMP_pressure;BME280_temperature;BME280_humidity;BME280_pressure;Samples;Min_cycle;Max_cycle;Signal;HPM_P1;HPM_P2
2023/06/30 00:01:48;;;;;;;0.20;0.20;;;;;;;23.43;42.53;101429.72;16113381;19;129251;-48
2023/06/30 00:07:11;;;;;;;0.17;0.10;;;;;;;23.43;42.87;101432.50;16112880;19;130577;-46
2023/06/30 00:12:33;;;;;;;0.70;0.20;;;;;;;23.42;42.82;101423.31;16108026;19;129663;-45
2023/06/30 00:17:56;;;;;;;0.30;0.20;;;;;;;23.42;42.92;101440.06;16109414;19;130142;-52
2023/06/30 00:23:20;;;;;;;0.30;0.20;;;;;;;23.41;42.76;101432.78;16109697;19;129724;-48
2023/06/30 00:28:41;;;;;;;0.40;0.20;;;;;;;23.40;42.87;101430.25;16100285;19;129796;-49
2023/06/30 00:34:03;;;;;;;0.30;0.15;;;;;;;23.40;42.79;101421.88;16101866;19;131894;-48
2023/06/30 00:39:25;;;;;;;0.10;0.10;;;;;;;23.39;42.80;101425.75;16103040;19;131351;-45
2023/06/30 00:44:47;;;;;;;1.05;0.20;;;;;;;23.38;42.80;101424.09;16105783;19;130678;-48
2023/06/30 00:50:10;;;;;;;0.60;0.20;;;;;;;23.38;42.83;101419.34;16105421;19;129360;-47
2023/06/30 00:55:33;;;;;;;0.93;0.40;;;;;;;23.37;42.60;101416.84;16106295;19;129854;-48
2023/06/30 01:01:25;;;;;;;1.10;0.30;;;;;;;23.37;42.35;101414.03;16108372;19;133971;-48
2023/06/30 01:06:58;;;;;;;0.47;0.20;;;;;;;23.34;42.50;101413.47;16100431;19;131792;-48
2023/06/30 01:12:21;;;;;;;1.75;0.30;;;;;;;23.33;42.35;101422.94;16104813;19;130021;-45
2023/06/30 01:17:46;;;;;;;0.28;0.10;;;;;;;23.32;42.53;101418.47;16101183;19;131464;-43
2023/06/30 01:23:23;;;;;;;1.73;0.30;;;;;;;23.31;42.65;101416.78;16107197;19;130524;-44
2023/06/30 01:28:45;;;;;;;0.57;0.30;;;;;;;23.30;42.61;101409.50;16101471;19;132588;-47
2023/06/30 01:34:07;;;;;;;0.80;0.40;;;;;;;23.30;42.84;101415.09;16104144;19;129889;-45
2023/06/30 01:39:29;;;;;;;1.42;0.25;;;;;;;23.30;42.58;101411.47;16107302;19;129765;-45
2023/06/30 01:44:52;;;;;;;0.50;0.20;;;;;;;23.28;42.72;101406.13;16111097;19;130435;-46
2023/06/30 01:50:15;;;;;;;0.63;0.20;;;;;;;23.29;42.72;101401.41;16122381;19;131011;-44
2023/06/30 01:55:38;;;;;;;0.43;0.10;;;;;;;23.27;42.38;101401.66;16119617;19;129677;-41
2023/06/30 02:01:00;;;;;;;0.98;0.20;;;;;;;23.25;42.54;101406.69;16114894;19;130736;-46
2023/06/30 02:06:22;;;;;;;1.00;0.30;;;;;;;23.26;42.68;101402.81;16113402;19;130135;-44
2023/06/30 02:11:44;;;;;;;1.02;0.30;;;;;;;23.26;42.61;101408.38;16108401;19;130492;-42
2023/06/30 02:17:08;;;;;;;1.38;0.35;;;;;;;23.25;42.56;101406.69;16106370;19;131230;-42
2023/06/30 02:22:30;;;;;;;1.33;0.40;;;;;;;23.25;42.57;101414.22;16115924;19;132088;-43
2023/06/30 02:27:52;;;;;;;0.98;0.30;;;;;;;23.22;42.57;101412.81;16116108;19;130726;-43
2023/06/30 02:33:14;;;;;;;0.75;0.25;;;;;;;23.23;42.38;101422.88;16115103;19;130738;-43
2023/06/30 02:38:36;;;;;;;1.20;0.20;;;;;;;23.22;42.59;101428.69;16115414;19;130398;-45
2023/06/30 02:43:58;;;;;;;0.30;0.10;;;;;;;23.21;42.62;101425.06;16110932;19;130325;-40
2023/06/30 02:49:20;;;;;;;0.35;0.10;;;;;;;23.21;42.64;101425.06;16113093;19;131864;-42
2023/06/30 02:54:42;;;;;;;0.57;0.20;;;;;;;23.20;42.70;101426.19;16115204;19;130348;-41
2023/06/30 03:00:06;;;;;;;0.30;0.20;;;;;;;23.19;42.64;101427.28;16107897;19;130929;-42
2023/06/30 03:05:28;;;;;;;0.68;0.20;;;;;;;23.18;42.63;101420.00;16109248;19;130113;-43
2023/06/30 03:10:50;;;;;;;0.30;0.30;;;;;;;23.17;42.65;101418.31;16110170;19;130367;-42
2023/06/30 03:16:12;;;;;;;1.25;0.25;;;;;;;23.16;42.54;101409.13;16106185;19;131413;-44
2023/06/30 03:21:34;;;;;;;0.45;0.10;;;;;;;23.16;42.88;101403.53;16117344;19;131430;-41
2023/06/30 03:26:56;;;;;;;0.10;0.10;;;;;;;23.15;42.62;101410.22;16115849;19;131673;-41
2023/06/30 03:32:18;;;;;;;0.40;0.20;;;;;;;23.16;42.86;101408.28;16114296;19;131560;-43
2023/06/30 03:37:40;;;;;;;0.95;0.20;;;;;;;23.14;42.62;101405.75;16117169;19;130534;-42
2023/06/30 03:43:02;;;;;;;1.15;0.22;;;;;;;23.13;42.17;101397.66;16113653;19;130692;-44
2023/06/30 03:48:24;;;;;;;0.50;0.10;;;;;;;23.13;42.35;101400.44;16106594;19;129636;-41
2023/06/30 03:53:46;;;;;;;0.13;0.10;;;;;;;23.11;42.20;101408.25;16101824;19;129632;-42
2023/06/30 03:59:09;;;;;;;0.30;0.20;;;;;;;23.10;42.28;101410.19;16089069;19;131410;-45
2023/06/30 04:04:31;;;;;;;0.93;0.32;;;;;;;23.10;42.41;101414.94;16111851;19;129616;-41
2023/06/30 04:09:53;;;;;;;0.17;0.13;;;;;;;23.09;42.53;101418.81;16108898;19;131848;-43
2023/06/30 04:15:15;;;;;;;0.32;0.20;;;;;;;23.07;42.51;101409.88;16108304;19;131181;-43
2023/06/30 04:20:37;;;;;;;0.43;0.17;;;;;;;23.07;42.75;101419.09;16112340;19;130069;-42
2023/06/30 04:26:00;;;;;;;1.55;0.50;;;;;;;23.06;42.32;101414.63;16108530;19;130212;-42
2023/06/30 04:31:22;;;;;;;0.60;0.20;;;;;;;23.05;42.41;101418.53;16107543;19;130377;-40
2023/06/30 04:36:44;;;;;;;0.88;0.30;;;;;;;23.04;42.39;101414.88;16103034;19;130625;-43
2023/06/30 04:42:06;;;;;;;1.33;0.20;;;;;;;23.03;42.13;101418.75;16112373;19;129343;-44
2023/06/30 04:47:28;;;;;;;1.48;0.20;;;;;;;23.03;42.37;101415.16;16104181;19;130244;-44
2023/06/30 04:52:50;;;;;;;0.40;0.20;;;;;;;23.02;42.34;101411.50;16108822;19;129860;-41
2023/06/30 04:58:12;;;;;;;0.50;0.20;;;;;;;23.02;42.18;101408.69;16107848;19;131043;-42
2023/06/30 05:03:34;;;;;;;3.05;0.30;;;;;;;23.02;42.45;101408.69;16105125;19;130853;-42
2023/06/30 05:08:56;;;;;;;0.77;0.30;;;;;;;23.01;42.49;101407.06;16103672;19;129816;-41
2023/06/30 05:14:18;;;;;;;1.20;0.40;;;;;;;23.01;42.39;101400.59;16105410;19;130213;-41
2023/06/30 05:19:41;;;;;;;0.68;0.30;;;;;;;23.01;42.18;101407.06;16120695;19;130251;-44
2023/06/30 05:25:07;;;;;;;0.60;0.20;;;;;;;23.00;42.23;101405.38;16126442;19;129324;-42
2023/06/30 05:30:29;;;;;;;1.17;0.30;;;;;;;22.99;42.09;101406.47;16124441;19;129627;-40
2023/06/30 05:35:50;;;;;;;0.43;0.30;;;;;;;22.99;42.36;101409.25;16125345;19;129576;-43
2023/06/30 05:41:12;;;;;;;2.58;0.95;;;;;;;22.97;41.73;101403.09;16121697;19;130577;-40
2023/06/30 05:46:37;;;;;;;6.40;1.45;;;;;;;22.91;41.10;101400.53;16124657;19;129503;-40
2023/06/30 05:51:59;;;;;;;9.23;1.60;;;;;;;22.84;40.72;101395.13;16120744;19;130591;-43
2023/06/30 05:57:21;;;;;;;8.32;1.83;;;;;;;22.78;40.65;101396.16;16119807;19;129935;-40
2023/06/30 06:02:43;;;;;;;6.55;1.80;;;;;;;22.76;39.96;101409.56;16123274;19;129464;-40
2023/06/30 06:08:05;;;;;;;11.70;2.53;;;;;;;22.73;40.18;101406.19;16119663;19;129723;-40
2023/06/30 06:13:34;;;;;;;8.70;2.15;;;;;;;22.73;39.76;101410.91;16118644;19;129637;-40
2023/06/30 06:18:56;;;;;;;9.70;2.28;;;;;;;22.71;39.89;101416.75;16119391;19;129727;-40
2023/06/30 06:24:18;;;;;;;5.53;1.95;;;;;;;22.71;39.52;101419.53;16120448;19;129481;-42
2023/06/30 06:29:40;;;;;;;7.10;1.73;;;;;;;22.70;39.60;101419.81;16120846;19;130945;-45
2023/06/30 06:35:02;;;;;;;6.78;1.80;;;;;;;22.70;39.45;101420.63;16117702;19;132004;-40
2023/06/30 06:40:24;;;;;;;9.43;1.67;;;;;;;22.69;39.40;101416.16;16118541;19;130358;-40
2023/06/30 06:45:46;;;;;;;8.05;1.70;;;;;;;22.68;39.51;101414.47;16118427;19;129243;-41
2023/06/30 06:51:08;;;;;;;12.23;2.13;;;;;;;22.68;39.43;101403.31;16117093;19;130189;-42
2023/06/30 06:56:30;;;;;;;8.70;2.05;;;;;;;22.69;39.21;101410.59;16120205;19;131189;-43
2023/06/30 07:01:52;;;;;;;8.20;1.70;;;;;;;22.70;39.23;101408.66;16120804;19;129609;-40
2023/06/30 07:07:14;;;;;;;7.35;1.75;;;;;;;22.71;38.95;101419.53;16120337;19;131494;-42
2023/06/30 07:12:36;;;;;;;8.68;1.88;;;;;;;22.73;38.72;101413.69;16115500;19;129451;-42
2023/06/30 07:17:58;;;;;;;7.20;1.65;;;;;;;22.73;37.97;101414.53;16112059;19;131041;-45
2023/06/30 07:23:20;;;;;;;13.65;1.85;;;;;;;22.73;37.44;101411.75;16117998;19;129489;-41
2023/06/30 07:28:48;;;;;;;6.47;1.50;;;;;;;22.74;37.91;101407.00;16116945;19;129363;-42
2023/06/30 07:34:10;;;;;;;7.80;1.65;;;;;;;22.74;37.71;101410.66;16117626;19;131992;-43
2023/06/30 07:39:31;;;;;;;5.72;1.08;;;;;;;22.76;38.08;101417.91;16112928;19;129733;-40
2023/06/30 07:44:53;;;;;;;5.90;1.40;;;;;;;22.78;37.83;101424.91;16113250;19;130224;-41
2023/06/30 07:50:15;;;;;;;7.47;1.58;;;;;;;22.82;37.94;101431.66;16115433;19;130702;-43
2023/06/30 07:55:37;;;;;;;5.15;1.15;;;;;;;22.85;37.55;101427.50;16115612;19;129706;-46
2023/06/30 08:00:59;;;;;;;5.82;0.90;;;;;;;22.88;37.46;101424.19;16114949;19;129708;-41
2023/06/30 08:06:21;;;;;;;4.90;1.17;;;;;;;22.89;37.85;101421.13;16116608;19;129775;-42
2023/06/30 08:11:43;;;;;;;3.42;1.10;;;;;;;22.91;37.59;101420.06;16110955;19;130635;-40
2023/06/30 08:17:05;;;;;;;3.97;1.15;;;;;;;22.93;38.10;101415.06;16113263;19;130916;-44
2023/06/30 08:22:27;;;;;;;3.90;0.93;;;;;;;22.93;37.90;101415.88;16114752;19;130514;-43
2023/06/30 08:27:50;;;;;;;1.98;0.70;;;;;;;22.96;37.54;101411.72;16114379;19;130099;-43
2023/06/30 08:33:12;;;;;;;4.80;0.60;;;;;;;22.97;37.68;101411.47;16110931;19;129430;-42
2023/06/30 08:38:46;;;;;;;2.25;0.80;;;;;;;23.00;37.85;101404.50;16110619;19;129164;-45
2023/06/30 08:44:09;;;;;;;3.53;0.80;;;;;;;23.00;38.17;101405.38;16112881;19;129779;-41
2023/06/30 08:49:32;;;;;;;3.15;0.70;;;;;;;23.00;38.20;101405.38;16109592;19;129595;-44
2023/06/30 08:54:54;;;;;;;2.90;0.98;;;;;;;23.02;38.00;101396.72;16111348;19;129711;-41
2023/06/30 09:00:16;;;;;;;5.40;1.15;;;;;;;23.02;38.30;101400.34;16110459;19;130788;-43
2023/06/30 09:05:40;;;;;;;3.78;1.10;;;;;;;23.03;37.93;101398.41;16107441;19;129627;-42
2023/06/30 09:11:04;;;;;;;2.38;0.70;;;;;;;23.03;37.80;101385.28;16112152;19;129891;-48
2023/06/30 09:16:26;;;;;;;2.95;0.77;;;;;;;23.05;37.98;101385.84;16107804;19;130143;-41
2023/06/30 09:21:49;;;;;;;1.92;0.73;;;;;;;23.07;38.50;101381.97;16109857;19;129491;-45
2023/06/30 09:27:12;;;;;;;2.15;0.88;;;;;;;23.07;38.05;101387.53;16109872;19;129174;-41
2023/06/30 09:32:34;;;;;;;2.53;0.70;;;;;;;23.08;37.96;101378.06;16106701;19;129683;-42
2023/06/30 09:37:55;;;;;;;2.45;0.70;;;;;;;23.09;38.23;101377.78;16105959;19;130546;-41
2023/06/30 09:43:22;;;;;;;1.77;0.60;;;;;;;23.09;38.07;101369.41;16105813;19;129630;-41
2023/06/30 09:48:44;;;;;;;1.98;0.70;;;;;;;23.09;38.22;101369.41;16105281;19;130381;-40
2023/06/30 09:54:09;;;;;;;1.50;0.50;;;;;;;23.11;38.03;101374.75;16107376;19;130771;-43
2023/06/30 09:59:32;;;;;;;1.95;0.60;;;;;;;23.11;38.20;101381.16;16108912;19;129605;-41
2023/06/30 10:04:53;;;;;;;3.33;0.70;;;;;;;23.13;38.06;101378.94;16112348;19;131055;-40
2023/06/30 10:10:16;;;;;;;4.53;0.73;;;;;;;23.14;38.09;101365.84;16119148;19;130748;-42
2023/06/30 10:15:39;;;;;;;1.52;0.70;;;;;;;23.15;37.88;101367.50;16118522;19;130788;-46
2023/06/30 10:21:01;;;;;;;1.67;0.60;;;;;;;23.14;38.11;101361.09;16111946;19;130927;-41
2023/06/30 10:26:24;;;;;;;0.93;0.40;;;;;;;23.16;38.21;101358.88;16116537;19;131755;-41
2023/06/30 10:31:48;;;;;;;2.78;0.70;;;;;;;23.16;38.33;101352.44;16116729;19;129120;-43
2023/06/30 10:37:11;;;;;;;1.65;0.60;;;;;;;23.16;38.18;101347.72;16118518;19;134582;-40
2023/06/30 10:42:36;;;;;;;2.38;0.40;;;;;;;23.19;38.26;101336.03;16118030;19;129656;-45
2023/06/30 10:48:08;;;;;;;0.95;0.50;;;;;;;23.20;38.33;101342.44;16115035;19;130552;-41
2023/06/30 10:53:30;;;;;;;1.20;0.50;;;;;;;23.19;38.37;101338.81;16115218;19;133365;-41
2023/06/30 10:58:52;;;;;;;0.95;0.50;;;;;;;23.20;37.97;101337.69;16113949;19;132096;-41
2023/06/30 11:04:14;;;;;;;1.23;0.50;;;;;;;23.21;38.31;101321.78;16118035;19;131072;-42
2023/06/30 11:09:48;;;;;;;0.80;0.47;;;;;;;23.22;38.25;101320.69;16114675;19;130384;-40
2023/06/30 11:15:24;;;;;;;1.23;0.50;;;;;;;23.22;38.39;101315.09;16114416;19;132124;-46
2023/06/30 11:21:03;;;;;;;0.90;0.40;;;;;;;23.24;38.27;101312.91;16113075;19;129323;-40
2023/06/30 11:26:25;;;;;;;1.63;0.50;;;;;;;23.24;38.46;101315.69;16116097;19;129768;-43
2023/06/30 11:31:47;;;;;;;1.30;0.30;;;;;;;23.24;38.22;101310.09;16113836;19;130771;-40
2023/06/30 11:37:09;;;;;;;1.15;0.70;;;;;;;23.25;38.34;101311.78;16114682;19;129524;-44
2023/06/30 11:42:32;;;;;;;1.27;0.75;;;;;;;23.25;38.30;101311.78;16117553;19;130232;-43
2023/06/30 11:47:55;;;;;;;1.83;0.70;;;;;;;23.25;38.03;101309.00;16111446;19;131309;-43
2023/06/30 11:53:17;;;;;;;2.75;0.93;;;;;;;23.26;37.69;101302.31;16112324;19;130543;-42
2023/06/30 11:58:49;;;;;;;1.63;0.80;;;;;;;23.27;37.91;101298.38;16112093;19;130666;-41
2023/06/30 12:04:12;;;;;;;1.67;0.70;;;;;;;23.28;37.37;101290.84;16112996;19;131021;-43
2023/06/30 12:09:34;;;;;;;4.40;1.10;;;;;;;23.34;37.29;101299.00;16112793;19;131486;-42
2023/06/30 12:14:59;;;;;;;2.20;0.90;;;;;;;23.38;37.06;101293.72;16111351;19;131020;-41
2023/06/30 12:20:30;;;;;;;4.28;1.08;;;;;;;23.43;36.60;101290.09;16105705;19;129659;-44
2023/06/30 12:25:53;;;;;;;3.85;1.35;;;;;;;23.48;36.48;101290.16;16108205;19;129019;-41
2023/06/30 12:31:15;;;;;;;2.28;0.88;;;;;;;23.51;36.43;101289.59;16111722;19;134594;-41
2023/06/30 12:36:37;;;;;;;3.95;0.80;;;;;;;23.53;36.33;101276.19;16106743;19;130173;-44
2023/06/30 12:41:59;;;;;;;6.40;1.30;;;;;;;23.59;35.72;101271.50;16110671;19;129469;-40
2023/06/30 12:47:21;;;;;;;4.55;0.85;;;;;;;23.61;35.40;101270.13;16106712;19;129853;-40
2023/06/30 12:52:42;;;;;;;6.80;1.00;;;;;;;23.63;35.21;101262.31;16108213;19;129684;-45
2023/06/30 12:58:04;;;;;;;5.10;1.02;;;;;;;23.65;34.81;101248.91;16110041;19;131006;-41
2023/06/30 13:03:32;;;;;;;1.80;0.80;;;;;;;23.66;34.94;101242.22;16109157;19;129581;-39
2023/06/30 13:08:54;;;;;;;7.60;1.20;;;;;;;23.70;34.81;101238.88;16101804;19;131511;-40
2023/06/30 13:14:16;;;;;;;12.63;1.10;;;;;;;23.72;34.43;101236.66;16102979;19;129716;-39
2023/06/30 13:19:38;;;;;;;3.47;0.88;;;;;;;23.73;34.70;101224.38;16108728;19;129459;-42
2023/06/30 13:25:00;;;;;;;3.22;0.80;;;;;;;23.76;34.71;101223.81;16105551;19;130188;-41
2023/06/30 13:30:22;;;;;;;5.40;0.90;;;;;;;23.77;34.68;101219.91;16108284;19;130344;-44
2023/06/30 13:35:47;;;;;;;3.95;0.88;;;;;;;23.78;34.48;101210.41;16108149;19;130816;-42
2023/06/30 13:41:09;;;;;;;3.38;0.77;;;;;;;23.78;34.53;101202.88;16118711;19;132372;-40
2023/06/30 13:46:31;;;;;;;2.75;0.85;;;;;;;23.81;34.34;101195.91;16125449;19;129404;-40
2023/06/30 13:51:54;;;;;;;4.00;1.00;;;;;;;23.81;34.46;101184.72;16124750;19;130034;-41
2023/06/30 13:57:16;;;;;;;3.97;0.98;;;;;;;23.83;34.39;101182.50;16122712;19;132926;-40
2023/06/30 14:02:38;;;;;;;2.65;1.08;;;;;;;23.84;34.26;101173.00;16122028;19;130532;-42
2023/06/30 14:08:00;;;;;;;5.50;0.88;;;;;;;23.83;34.79;101160.16;16122261;19;129967;-41
2023/06/30 14:13:22;;;;;;;1.48;0.88;;;;;;;23.87;34.32;101146.44;16121400;19;132260;-41
2023/06/30 14:18:43;;;;;;;5.30;1.00;;;;;;;23.87;34.47;101155.69;16120850;19;131484;-40
2023/06/30 14:24:05;;;;;;;5.20;0.90;;;;;;;23.88;34.02;101146.16;16120864;19;130252;-40
2023/06/30 14:29:28;;;;;;;7.25;0.98;;;;;;;23.89;34.36;101147.84;16116534;19;130431;-41
2023/06/30 14:34:50;;;;;;;5.80;1.10;;;;;;;23.88;34.28;101135.00;16112093;19;132017;-47
2023/06/30 14:40:12;;;;;;;4.90;0.90;;;;;;;23.87;34.36;101136.13;16117785;19;132518;-40
2023/06/30 14:45:35;;;;;;;2.63;1.02;;;;;;;23.87;34.30;101127.75;16115674;19;130733;-40
2023/06/30 14:50:57;;;;;;;3.45;1.23;;;;;;;23.85;34.27;101120.75;16107738;19;133061;-41
2023/06/30 14:56:19;;;;;;;3.72;0.70;;;;;;;23.83;34.59;101121.03;16116868;19;130877;-40
2023/06/30 15:01:40;;;;;;;6.30;0.95;;;;;;;23.81;34.49;101118.53;16114825;19;130492;-39
2023/06/30 15:07:04;;;;;;;6.57;0.90;;;;;;;23.80;34.63;101121.56;16115136;19;129656;-40
2023/06/30 15:12:26;;;;;;;3.15;0.88;;;;;;;23.80;34.68;101121.56;16117818;19;130119;-39
2023/06/30 15:17:48;;;;;;;4.53;1.10;;;;;;;23.78;34.84;101107.03;16119194;19;129418;-39
2023/06/30 15:23:10;;;;;;;2.63;1.15;;;;;;;23.77;34.98;101105.38;16111961;19;129896;-41
2023/06/30 15:28:32;;;;;;;2.83;0.90;;;;;;;23.78;35.18;101093.06;16112998;19;130012;-39
2023/06/30 15:33:54;;;;;;;4.03;0.82;;;;;;;23.80;35.19;101090.84;16115095;19;133445;-40
2023/06/30 15:39:15;;;;;;;2.80;0.90;;;;;;;23.81;35.14;101089.72;16113212;19;130031;-45
2023/06/30 15:44:37;;;;;;;3.42;0.80;;;;;;;23.82;35.47;101091.41;16112121;19;129122;-48
2023/06/30 15:49:59;;;;;;;2.65;0.80;;;;;;;23.85;35.57;101087.22;16113474;19;129718;-47
2023/06/30 15:55:21;;;;;;;2.92;0.93;;;;;;;23.84;35.70;101082.75;16110899;19;129927;-46
2023/06/30 16:00:43;;;;;;;2.10;0.70;;;;;;;23.84;35.73;101082.75;16108632;19;129704;-47
2023/06/30 16:06:05;;;;;;;1.80;0.70;;;;;;;23.82;35.99;101069.88;16105115;19;129599;-46
2023/06/30 16:11:27;;;;;;;1.20;0.70;;;;;;;23.82;35.82;101067.09;16110720;19;131085;-45
2023/06/30 16:16:49;;;;;;;4.18;0.85;;;;;;;23.83;35.64;101059.56;16112278;19;130079;-48
2023/06/30 16:22:11;;;;;;;3.70;0.90;;;;;;;23.83;35.67;101053.97;16109954;19;130532;-44
2023/06/30 16:27:33;;;;;;;3.08;1.05;;;;;;;23.85;36.03;101043.38;16112059;19;129564;-46
2023/06/30 16:32:56;;;;;;;3.22;0.88;;;;;;;23.86;35.30;101035.81;16110890;19;129914;-46
2023/06/30 16:38:18;;;;;;;4.15;0.95;;;;;;;23.83;35.57;101026.03;16106284;19;130620;-47
2023/06/30 16:43:40;;;;;;;3.53;1.27;;;;;;;23.85;35.76;101018.22;16111827;19;131360;-47
2023/06/30 16:49:02;;;;;;;7.70;0.70;;;;;;;23.88;35.97;101012.06;16109045;19;130156;-48
2023/06/30 16:54:23;;;;;;;4.88;1.10;;;;;;;23.89;35.64;101010.94;16110684;19;130036;-47
2023/06/30 16:59:45;;;;;;;8.27;1.10;;;;;;;23.89;35.90;101010.94;16110357;19;129267;-48
2023/06/30 17:05:08;;;;;;;2.42;0.85;;;;;;;23.88;35.36;101011.22;16108522;19;131955;-44
2023/06/30 17:10:30;;;;;;;5.30;1.00;;;;;;;23.89;35.56;101002.56;16110648;19;133507;-46
2023/06/30 17:15:52;;;;;;;3.58;0.90;;;;;;;23.90;35.49;101006.22;16120211;19;130165;-46
2023/06/30 17:21:14;;;;;;;1.77;0.80;;;;;;;23.89;35.77;101005.34;16122583;19;130362;-46
2023/06/30 17:26:36;;;;;;;3.97;0.73;;;;;;;23.90;35.64;101009.81;16125818;19;129344;-45
2023/06/30 17:31:58;;;;;;;3.58;0.95;;;;;;;23.91;35.56;101008.72;16124246;19;129801;-46
2023/06/30 17:37:20;;;;;;;3.15;0.80;;;;;;;23.92;35.74;100996.41;16118749;19;131057;-46
2023/06/30 17:42:41;;;;;;;6.53;1.00;;;;;;;23.93;35.66;100992.50;16122916;19;129443;-49
2023/06/30 17:48:04;;;;;;;3.15;0.60;;;;;;;23.92;35.68;100990.81;16121454;19;130571;-46
2023/06/30 17:53:27;;;;;;;5.05;0.65;;;;;;;23.91;35.87;101005.91;16122728;19;131135;-49
2023/06/30 17:58:49;;;;;;;1.52;0.70;;;;;;;23.92;35.90;101001.19;16122507;19;129812;-48
2023/06/30 18:04:11;;;;;;;1.58;0.50;;;;;;;23.91;36.21;101003.13;16122810;19;131182;-46
2023/06/30 18:09:35;;;;;;;6.90;1.20;;;;;;;23.90;35.88;100998.66;16122868;19;129506;-47
2023/06/30 18:14:57;;;;;;;2.92;1.00;;;;;;;23.91;36.21;101008.72;16115565;19;129305;-45
2023/06/30 18:20:20;;;;;;;2.20;0.70;;;;;;;23.92;36.09;101007.59;16121044;19;129368;-46
2023/06/30 18:25:42;;;;;;;4.03;0.80;;;;;;;23.93;36.71;101003.69;16116768;19;130245;-48
2023/06/30 18:31:04;;;;;;;7.18;0.88;;;;;;;23.93;36.61;101000.88;16116857;19;130897;-44
2023/06/30 18:36:26;;;;;;;3.47;0.70;;;;;;;23.93;36.47;101000.88;16113010;19;129729;-45
2023/06/30 18:41:48;;;;;;;10.73;0.90;;;;;;;23.93;36.89;100992.50;16113288;19;129432;-44
2023/06/30 18:47:10;;;;;;;9.77;0.98;;;;;;;23.92;37.25;100984.41;16115679;19;132028;-46
2023/06/30 18:52:32;;;;;;;8.25;0.70;;;;;;;23.91;37.03;100989.16;16116404;19;131878;-44
2023/06/30 18:57:54;;;;;;;3.90;0.63;;;;;;;23.91;37.21;100977.16;16106775;19;130990;-46
2023/06/30 19:03:16;;;;;;;11.13;1.63;;;;;;;23.90;37.03;100976.28;16113469;19;129852;-47
2023/06/30 19:08:38;;;;;;;9.80;1.40;;;;;;;23.90;37.18;100979.09;16110169;19;130709;-49
2023/06/30 19:14:01;;;;;;;11.07;1.42;;;;;;;23.88;37.22;100986.09;16115832;19;130507;-46
2023/06/30 19:19:24;;;;;;;18.67;1.52;;;;;;;23.87;37.25;100988.06;16110684;19;130091;-47
2023/06/30 19:24:45;;;;;;;14.68;1.40;;;;;;;23.87;37.39;100987.19;16111031;19;130268;-44
2023/06/30 19:30:08;;;;;;;22.02;1.75;;;;;;;23.87;37.38;100985.25;16114355;19;129709;-45
2023/06/30 19:35:30;;;;;;;13.27;1.30;;;;;;;23.86;37.11;100993.91;16113655;19;129761;-43
2023/06/30 19:40:53;;;;;;;9.07;1.20;;;;;;;23.85;37.45;100992.22;16115114;19;130197;-46
2023/06/30 19:46:15;;;;;;;11.85;1.33;;;;;;;23.84;37.41;100983.03;16116384;19;132901;-45
2023/06/30 19:51:37;;;;;;;9.02;1.55;;;;;;;23.80;37.59;100993.06;16110717;19;129725;-48
2023/06/30 19:56:59;;;;;;;24.20;2.28;;;;;;;23.78;37.34;100986.91;16107497;19;130566;-47
2023/06/30 20:02:21;;;;;;;16.50;1.30;;;;;;;23.77;37.29;100986.09;16111935;19;130758;-47
2023/06/30 20:07:43;;;;;;;18.48;2.33;;;;;;;23.77;37.28;100983.31;16113145;19;131241;-45
2023/06/30 20:13:05;;;;;;;16.85;2.13;;;;;;;23.77;37.24;100988.03;16107655;19;131496;-47
2023/06/30 20:18:29;;;;;;;20.70;1.98;;;;;;;23.77;37.62;100979.66;16104509;19;133132;-48
2023/06/30 20:23:50;;;;;;;11.38;1.73;;;;;;;23.76;37.61;100972.41;16113020;19;130581;-48
2023/06/30 20:29:12;;;;;;;36.63;2.53;;;;;;;23.77;37.79;100979.66;16109733;19;129659;-47
2023/06/30 20:34:34;;;;;;;30.95;2.33;;;;;;;23.75;37.78;100968.78;16109585;19;130134;-43
2023/06/30 20:39:56;;;;;;;20.17;2.33;;;;;;;23.73;37.87;100964.59;16105108;19;130714;-45
2023/06/30 20:45:18;;;;;;;24.05;1.88;;;;;;;23.69;37.95;100944.78;16109112;19;129590;-44
2023/06/30 20:50:40;;;;;;;22.67;2.13;;;;;;;23.68;37.81;100950.63;16107095;19;130684;-43
2023/06/30 20:56:02;;;;;;;21.65;2.70;;;;;;;23.65;38.02;100947.28;16104011;19;131965;-45
2023/06/30 21:01:24;;;;;;;16.88;2.47;;;;;;;23.64;37.89;100939.19;16072313;19;132398;-42
2023/06/30 21:06:46;;;;;;;16.10;2.15;;;;;;;23.61;37.70;100929.41;16092092;19;129420;-47
2023/06/30 21:12:08;;;;;;;10.70;1.77;;;;;;;23.59;37.89;100922.41;16090996;19;130499;-46
2023/06/30 21:17:30;;;;;;;10.80;1.42;;;;;;;23.57;37.83;100917.09;16104823;19;135366;-44
2023/06/30 21:22:52;;;;;;;15.52;1.40;;;;;;;23.57;37.95;100916.28;16102881;19;130842;-43
2023/06/30 21:28:15;;;;;;;13.80;1.33;;;;;;;23.55;38.07;100907.31;16104764;19;131347;-45
2023/06/30 21:33:37;;;;;;;12.23;1.52;;;;;;;23.53;38.02;100910.38;16100397;19;129914;-43
2023/06/30 21:38:59;;;;;;;13.63;1.23;;;;;;;23.51;37.82;100907.03;16105086;19;130466;-46
2023/06/30 21:44:21;;;;;;;14.45;1.70;;;;;;;23.50;37.92;100891.41;16100781;19;131635;-45
2023/06/30 21:49:44;;;;;;;5.88;1.13;;;;;;;23.49;38.03;100884.97;16102261;19;130668;-43
2023/06/30 21:55:06;;;;;;;13.20;1.35;;;;;;;23.49;37.91;100879.41;16099174;19;129467;-44
2023/06/30 22:00:29;;;;;;;4.47;1.15;;;;;;;23.48;38.06;100869.34;16106347;19;131960;-43
2023/06/30 22:05:51;;;;;;;8.32;1.15;;;;;;;23.47;38.11;100862.09;16119564;19;130026;-42
2023/06/30 22:11:13;;;;;;;9.43;1.48;;;;;;;23.47;38.08;100856.50;16120735;19;130601;-44
2023/06/30 22:16:35;;;;;;;6.15;0.90;;;;;;;23.47;37.83;100844.50;16111021;19;129642;-45
2023/06/30 22:21:57;;;;;;;5.15;1.00;;;;;;;23.47;37.99;100844.50;16117594;19;130088;-45
2023/06/30 22:27:19;;;;;;;5.68;1.40;;;;;;;23.45;38.24;100841.16;16117547;19;130116;-48
2023/06/30 22:32:41;;;;;;;5.32;0.80;;;;;;;23.45;38.40;100830.00;16114256;19;131534;-48
2023/06/30 22:38:03;;;;;;;11.13;1.38;;;;;;;23.44;37.83;100822.72;16116771;19;130964;-48
2023/06/30 22:43:25;;;;;;;4.88;1.00;;;;;;;23.43;38.00;100821.06;16116257;19;131814;-46
2023/06/30 22:48:47;;;;;;;4.20;0.90;;;;;;;23.42;38.02;100811.84;16114098;19;129213;-47
2023/06/30 22:54:09;;;;;;;5.68;1.00;;;;;;;23.42;38.02;100813.78;16116385;19;129679;-50
2023/06/30 22:59:31;;;;;;;6.05;0.90;;;;;;;23.41;38.07;100800.94;16114442;19;131673;-45
2023/06/30 23:04:53;;;;;;;4.05;0.60;;;;;;;23.41;37.98;100803.75;16114232;19;129726;-48
2023/06/30 23:10:15;;;;;;;2.42;0.68;;;;;;;23.40;38.01;100793.69;16115930;19;130042;-44
2023/06/30 23:15:37;;;;;;;3.03;0.75;;;;;;;23.39;38.10;100784.50;16113564;19;130894;-47
2023/06/30 23:20:58;;;;;;;3.08;1.05;;;;;;;23.38;38.13;100773.63;16111314;19;129917;-44
2023/06/30 23:26:23;;;;;;;3.22;1.10;;;;;;;23.39;38.42;100772.47;16112687;19;131344;-42
2023/06/30 23:31:47;;;;;;;2.63;0.75;;;;;;;23.38;38.22;100768.88;16113762;19;129836;-45
2023/06/30 23:37:11;;;;;;;2.83;0.90;;;;;;;23.38;37.98;100765.25;16112565;19;130649;-43
2023/06/30 23:42:33;;;;;;;3.10;0.90;;;;;;;23.35;38.10;100759.09;16113189;19;131779;-43
2023/06/30 23:47:55;;;;;;;3.33;0.93;;;;;;;23.35;37.95;100764.69;16112592;19;133303;-44
2023/06/30 23:53:17;;;;;;;3.33;0.93;;;;;;;23.36;38.11;100745.97;16110305;19;130991;-43
2023/06/30 23:58:39;;;;;;;1.25;0.55;;;;;;;23.35;38.07;100747.94;16109264;19;129919;-45
